createdAt,value
2024-01-10T00:00:53.930Z,18.57
2024-01-10T00:03:21.807Z,17.04
2024-01-10T00:05:49.696Z,17.91
2024-01-10T00:08:17.575Z,17.53
2024-01-10T00:10:45.653Z,17.73
2024-01-10T00:13:13.464Z,16.63
2024-01-10T00:15:41.248Z,17.76
2024-01-10T00:18:09.198Z,17.04
2024-01-10T00:20:37.106Z,16.64
2024-01-10T00:23:05.344Z,18.03
2024-01-10T00:25:33.384Z,18.46
2024-01-10T00:28:01.207Z,17.95
2024-01-10T00:30:29.032Z,17.99
2024-01-10T00:32:56.953Z,17.70
2024-01-10T00:35:24.920Z,17.49
2024-01-10T00:37:52.865Z,18.98
2024-01-10T00:40:21.268Z,17.95
2024-01-10T00:42:49.490Z,17.85
2024-01-10T00:45:18.760Z,17.78
2024-01-10T00:47:46.609Z,18.20
2024-01-10T00:50:14.507Z,18.08
2024-01-10T00:52:42.438Z,17.91
2024-01-10T00:55:10.345Z,17.98
2024-01-10T00:57:39.374Z,17.56
2024-01-10T01:00:12.040Z,18.20
2024-01-10T01:02:40.693Z,18.91
2024-01-10T01:05:09.998Z,17.76
2024-01-10T01:07:38.758Z,18.27
2024-01-10T01:10:09.972Z,18.28
2024-01-10T01:12:38.090Z,17.91
2024-01-10T01:15:06.803Z,17.85
2024-01-10T01:17:35.676Z,18.45
2024-01-10T01:20:06.056Z,18.89
2024-01-10T01:22:34.130Z,17.70
2024-01-10T01:25:03.737Z,18.17
2024-01-10T01:27:31.696Z,18.85
2024-01-10T01:29:59.425Z,18.76
2024-01-10T01:32:27.344Z,18.68
2024-01-10T01:34:55.368Z,18.93
2024-01-10T01:37:23.389Z,18.16
2024-01-10T01:39:51.234Z,18.15
2024-01-10T01:42:19.106Z,18.42
2024-01-10T01:44:46.967Z,18.14
2024-01-10T01:47:15.697Z,18.66
2024-01-10T01:49:44.911Z,18.59
2024-01-10T01:52:13.222Z,19.12
2024-01-10T01:54:42.427Z,20.14
2024-01-10T01:57:10.653Z,19.22
2024-01-10T01:59:38.730Z,18.70
2024-01-10T02:02:07.099Z,19.73
2024-01-10T02:04:35.413Z,19.24
2024-01-10T02:07:03.742Z,19.08
2024-01-10T02:09:31.792Z,19.41
2024-01-10T02:11:59.780Z,19.49
2024-01-10T02:14:27.902Z,19.27
2024-01-10T02:16:56.514Z,19.00
2024-01-10T02:19:27.903Z,19.66
2024-01-10T02:21:57.372Z,19.65
2024-01-10T02:24:25.199Z,19.53
2024-01-10T02:26:53.600Z,19.62
2024-01-10T02:29:21.480Z,19.29
2024-01-10T02:31:49.769Z,19.57
2024-01-10T02:34:17.749Z,18.57
2024-01-10T02:36:45.580Z,19.20
2024-01-10T02:39:13.354Z,19.36
2024-01-10T02:41:41.186Z,19.86
2024-01-10T02:44:09.183Z,19.96
2024-01-10T02:46:37.195Z,18.87
2024-01-10T02:49:05.129Z,19.66
2024-01-10T02:51:33.506Z,19.81
2024-01-10T02:54:01.272Z,20.29
2024-01-10T02:56:29.117Z,20.17
2024-01-10T02:58:57.088Z,19.22
2024-01-10T03:01:25.182Z,19.95
2024-01-10T03:03:53.398Z,20.06
2024-01-10T03:06:21.371Z,19.80
2024-01-10T03:08:49.314Z,19.73
2024-01-10T03:11:17.288Z,19.59
2024-01-10T03:13:48.696Z,18.72
2024-01-10T03:16:16.823Z,19.96
2024-01-10T03:18:44.826Z,20.59
2024-01-10T03:21:13.083Z,20.94
2024-01-10T03:23:40.972Z,20.09
2024-01-10T03:26:10.744Z,19.60
2024-01-10T03:28:38.966Z,20.28
2024-01-10T03:31:06.854Z,20.57
2024-01-10T03:33:35.021Z,19.69
2024-01-10T03:36:03.042Z,20.19
2024-01-10T03:38:30.799Z,20.44
2024-01-10T03:40:58.725Z,21.33
2024-01-10T03:43:26.641Z,19.74
2024-01-10T03:45:54.825Z,20.47
2024-01-10T03:48:22.866Z,20.46
2024-01-10T03:50:54.457Z,20.72
2024-01-10T03:53:22.315Z,21.31
2024-01-10T03:55:50.209Z,20.49
2024-01-10T03:58:18.040Z,20.99
2024-01-10T04:00:45.850Z,20.44
2024-01-10T04:03:13.837Z,20.99
2024-01-10T04:05:43.386Z,21.21
2024-01-10T04:08:11.277Z,20.20
2024-01-10T04:10:39.088Z,20.80
2024-01-10T04:13:07.296Z,20.90
2024-01-10T04:15:36.055Z,20.36
2024-01-10T04:18:04.193Z,20.13
2024-01-10T04:20:32.516Z,20.62
2024-01-10T04:23:00.681Z,20.95
2024-01-10T04:25:28.493Z,21.40
2024-01-10T04:27:57.055Z,20.33
2024-01-10T04:30:25.242Z,21.69
2024-01-10T04:32:53.191Z,20.67
2024-01-10T04:35:21.316Z,20.56
2024-01-10T04:37:49.222Z,20.27
2024-01-10T04:40:17.062Z,20.34
2024-01-10T04:42:45.479Z,20.44
2024-01-10T04:45:13.297Z,20.26
2024-01-10T04:47:41.229Z,20.88
2024-01-10T04:50:11.504Z,20.56
2024-01-10T04:52:41.564Z,20.47
2024-01-10T04:55:09.810Z,20.95
2024-01-10T04:57:37.905Z,20.99
2024-01-10T05:00:06.282Z,21.01
2024-01-10T05:02:34.215Z,21.29
2024-01-10T05:05:02.538Z,21.54
2024-01-10T05:07:30.716Z,21.15
2024-01-10T05:09:58.533Z,20.91
2024-01-10T05:12:26.516Z,20.50
2024-01-10T05:14:55.394Z,20.95
2024-01-10T05:17:23.240Z,21.79
2024-01-10T05:19:54.595Z,21.50
2024-01-10T05:22:23.550Z,21.15
2024-01-10T05:24:51.371Z,21.26
2024-01-10T05:27:19.298Z,21.50
2024-01-10T05:29:48.454Z,21.14
2024-01-10T05:32:16.324Z,22.11
2024-01-10T05:34:44.353Z,22.14
2024-01-10T05:37:12.198Z,21.53
2024-01-10T05:39:40.020Z,21.45
2024-01-10T05:42:07.993Z,24.73
2024-01-10T05:44:35.764Z,28.17
2024-01-10T05:47:04.162Z,27.39
2024-01-10T05:49:32.201Z,31.47
2024-01-10T05:52:00.031Z,37.97
2024-01-10T05:54:28.652Z,37.68
2024-01-10T05:56:56.566Z,28.89
2024-01-10T05:59:27.639Z,28.03
2024-01-10T06:01:57.580Z,27.15
2024-01-10T06:04:25.867Z,27.59
2024-01-10T06:06:53.940Z,30.75
2024-01-10T06:09:23.492Z,26.11
2024-01-10T06:11:51.436Z,22.92
2024-01-10T06:14:19.459Z,22.65
2024-01-10T06:16:47.351Z,26.57
2024-01-10T06:19:15.241Z,30.31
2024-01-10T06:21:43.427Z,25.31
2024-01-10T06:24:12.102Z,23.24
2024-01-10T06:26:39.886Z,23.12
2024-01-10T06:29:07.828Z,23.72
2024-01-10T06:31:35.675Z,24.96
2024-01-10T06:34:03.548Z,23.84
2024-01-10T06:36:31.358Z,25.69
2024-01-10T06:38:59.470Z,28.33
2024-01-10T06:41:27.676Z,29.16
2024-01-10T06:43:56.140Z,28.73
2024-01-10T06:46:24.045Z,25.18
2024-01-10T06:48:51.996Z,25.74
2024-01-10T06:51:19.772Z,25.64
2024-01-10T06:53:47.657Z,23.49
2024-01-10T06:56:15.655Z,21.98
2024-01-10T06:58:43.401Z,22.14
2024-01-10T07:01:15.827Z,21.40
2024-01-10T07:03:46.127Z,21.39
2024-01-10T07:06:16.980Z,22.05
2024-01-10T07:08:46.259Z,24.35
2024-01-10T07:11:14.251Z,26.60
2024-01-10T07:13:43.102Z,29.08
2024-01-10T07:16:11.599Z,27.05
2024-01-10T07:18:40.035Z,26.44
2024-01-10T07:21:08.135Z,23.21
2024-01-10T07:23:36.568Z,23.43
2024-01-10T07:26:04.402Z,22.62
2024-01-10T07:28:33.938Z,22.37
2024-01-10T07:31:03.867Z,22.28
2024-01-10T07:33:32.030Z,21.96
2024-01-10T07:36:01.906Z,22.45
2024-01-10T07:38:30.223Z,22.13
2024-01-10T07:41:00.543Z,22.62
2024-01-10T07:43:28.546Z,22.84
2024-01-10T07:45:56.496Z,22.95
2024-01-10T07:48:24.752Z,24.47
2024-01-10T07:50:52.614Z,24.59
2024-01-10T07:53:20.344Z,24.92
2024-01-10T07:55:48.248Z,27.37
2024-01-10T07:58:17.264Z,24.06
2024-01-10T08:00:46.464Z,23.42
2024-01-10T08:03:14.526Z,23.21
2024-01-10T08:05:42.577Z,24.18
2024-01-10T08:08:10.631Z,23.40
2024-01-10T08:10:39.862Z,23.24
2024-01-10T08:13:08.138Z,23.49
2024-01-10T08:15:35.999Z,24.23
2024-01-10T08:18:04.337Z,23.90
2024-01-10T08:20:32.359Z,24.56
2024-01-10T08:23:00.267Z,24.34
2024-01-10T08:25:28.153Z,24.88
2024-01-10T08:27:58.094Z,24.04
2024-01-10T08:30:26.557Z,24.80
2024-01-10T08:32:54.964Z,26.21
2024-01-10T08:35:26.698Z,26.41
2024-01-10T08:37:56.443Z,27.45
2024-01-10T08:40:26.664Z,26.65
2024-01-10T08:42:55.318Z,26.47
2024-01-10T08:45:23.312Z,25.20
2024-01-10T08:47:51.273Z,24.90
2024-01-10T08:50:19.217Z,25.00
2024-01-10T08:52:47.053Z,25.22
2024-01-10T08:55:15.033Z,25.71
2024-01-10T08:57:43.155Z,26.82
2024-01-10T09:00:13.598Z,43.60
2024-01-10T09:02:41.670Z,50.65
2024-01-10T09:05:12.146Z,31.55
2024-01-10T09:07:40.786Z,33.90
2024-01-10T09:10:09.304Z,36.71
2024-01-10T09:12:37.281Z,31.10
2024-01-10T09:15:05.807Z,28.63
2024-01-10T09:17:33.807Z,28.75
2024-01-10T09:20:03.940Z,40.32
2024-01-10T09:22:31.849Z,34.76
2024-01-10T09:25:04.963Z,30.35
2024-01-10T09:27:33.525Z,26.80
2024-01-10T09:30:09.983Z,27.69
2024-01-10T09:32:39.040Z,28.07
2024-01-10T09:35:07.363Z,29.57
2024-01-10T09:37:35.214Z,28.96
2024-01-10T09:40:03.118Z,34.51
2024-01-10T09:42:34.826Z,33.32
2024-01-10T09:45:06.274Z,35.06
2024-01-10T09:47:37.419Z,38.89
2024-01-10T09:50:06.444Z,41.86
2024-01-10T09:52:40.891Z,37.33
2024-01-10T09:55:11.269Z,42.33
2024-01-10T09:57:41.045Z,40.01
2024-01-10T10:00:12.314Z,38.29
2024-01-10T10:02:41.514Z,38.80
2024-01-10T10:05:11.737Z,37.00
2024-01-10T10:08:09.241Z,38.29
2024-01-10T10:10:37.476Z,35.54
2024-01-10T10:13:08.076Z,33.17
2024-01-10T10:15:35.832Z,34.36
2024-01-10T10:18:03.827Z,35.71
2024-01-10T10:20:37.719Z,30.99
2024-01-10T10:23:19.388Z,28.59
2024-01-10T10:25:50.261Z,27.55
2024-01-10T10:28:25.236Z,28.22
2024-01-10T10:30:58.059Z,27.42
2024-01-10T10:33:26.652Z,27.76
2024-01-10T10:35:54.965Z,27.81
2024-01-10T10:38:24.895Z,27.61
2024-01-10T10:40:53.805Z,28.28
2024-01-10T10:43:24.239Z,28.20
2024-01-10T10:45:53.107Z,28.33
2024-01-10T10:48:23.013Z,28.36
2024-01-10T10:51:11.468Z,28.56
2024-01-10T10:53:41.828Z,29.38
2024-01-10T10:56:10.733Z,28.89
2024-01-10T10:58:41.936Z,30.73
2024-01-10T11:01:12.714Z,33.32
2024-01-10T11:03:43.876Z,30.07
2024-01-10T11:06:12.201Z,29.97
2024-01-10T11:08:49.186Z,28.52
2024-01-10T11:11:29.355Z,27.26
2024-01-10T11:14:03.516Z,28.34
2024-01-10T11:16:59.776Z,27.98
2024-01-10T11:19:57.286Z,28.31
2024-01-10T11:22:34.262Z,29.75
2024-01-10T11:25:03.296Z,28.60
2024-01-10T11:27:32.431Z,29.12
2024-01-10T11:30:01.489Z,30.46
2024-01-10T11:32:29.518Z,30.26
2024-01-10T11:35:00.379Z,30.30
2024-01-10T11:37:45.824Z,29.15
2024-01-10T11:40:25.060Z,29.97
2024-01-10T11:42:53.962Z,29.25
2024-01-10T11:45:36.732Z,30.84
2024-01-10T11:48:04.972Z,31.35
2024-01-10T11:50:33.088Z,30.11
2024-01-10T11:53:01.529Z,29.97
2024-01-10T11:55:48.614Z,29.75
2024-01-10T11:58:18.155Z,30.60
2024-01-10T12:00:47.656Z,29.80
2024-01-10T12:03:17.518Z,29.74
2024-01-10T12:05:45.507Z,29.55
2024-01-10T12:08:13.481Z,31.34
2024-01-10T12:10:47.767Z,33.04
2024-01-10T12:13:16.396Z,30.82
2024-01-10T12:15:44.499Z,30.53
2024-01-10T12:18:12.952Z,29.06
2024-01-10T12:20:41.156Z,30.64
2024-01-10T12:23:08.988Z,31.08
2024-01-10T12:25:37.956Z,30.87
2024-01-10T12:28:05.961Z,30.25
2024-01-10T12:30:34.003Z,30.84
2024-01-10T12:33:03.049Z,31.56
2024-01-10T12:35:31.033Z,33.13
2024-01-10T12:37:58.972Z,32.44
2024-01-10T12:40:27.834Z,32.31
2024-01-10T12:43:08.887Z,32.27
2024-01-10T12:45:36.820Z,33.11
2024-01-10T12:48:05.303Z,34.02
2024-01-10T12:50:33.122Z,32.83
2024-01-10T12:53:01.448Z,34.34
2024-01-10T12:55:29.665Z,33.58
2024-01-10T12:58:03.222Z,33.15
2024-01-10T13:00:36.092Z,33.40
2024-01-10T13:03:04.581Z,34.46
2024-01-10T13:05:32.748Z,34.29
2024-01-10T13:08:00.868Z,33.92
2024-01-10T13:10:28.845Z,34.60
2024-01-10T13:12:56.774Z,33.68
2024-01-10T13:15:27.600Z,32.69
2024-01-10T13:17:55.949Z,33.67
2024-01-10T13:20:23.864Z,33.64
2024-01-10T13:22:52.732Z,32.85
2024-01-10T13:25:24.186Z,33.81
2024-01-10T13:27:55.419Z,35.94
2024-01-10T13:30:23.798Z,44.97
2024-01-10T13:32:51.865Z,35.72
2024-01-10T13:35:19.945Z,34.51
2024-01-10T13:37:48.011Z,34.13
2024-01-10T13:40:15.994Z,34.35
2024-01-10T13:42:45.392Z,32.12
2024-01-10T13:45:13.436Z,32.09
2024-01-10T13:47:42.070Z,31.93
2024-01-10T13:50:10.868Z,33.22
2024-01-10T13:52:38.917Z,32.90
2024-01-10T13:55:06.906Z,32.70
2024-01-10T13:57:35.301Z,32.63
2024-01-10T14:00:08.187Z,35.51
2024-01-10T14:02:42.986Z,35.91
2024-01-10T14:05:11.699Z,34.76
2024-01-10T14:07:39.662Z,33.55
2024-01-10T14:10:08.096Z,35.71
2024-01-10T14:12:35.918Z,33.60
2024-01-10T14:15:05.013Z,34.33
2024-01-10T14:17:33.038Z,31.03
2024-01-10T14:20:00.958Z,30.60
2024-01-10T14:22:31.935Z,30.34
2024-01-10T14:25:02.811Z,33.17
2024-01-10T14:27:31.883Z,34.67
2024-01-10T14:30:00.691Z,32.08
2024-01-10T14:32:29.167Z,31.47
2024-01-10T14:34:58.783Z,31.02
2024-01-10T14:37:27.108Z,31.22
2024-01-10T14:39:55.324Z,30.92
2024-01-10T14:42:23.123Z,31.49
2024-01-10T14:44:51.016Z,31.90
2024-01-10T14:47:19.038Z,35.38
2024-01-10T14:49:47.223Z,34.40
2024-01-10T14:52:15.116Z,31.62
2024-01-10T14:54:43.290Z,32.68
2024-01-10T14:57:11.259Z,33.78
2024-01-10T14:59:45.145Z,32.04
2024-01-10T15:02:15.911Z,31.98
2024-01-10T15:04:45.717Z,31.79
2024-01-10T15:07:14.471Z,33.31
2024-01-10T15:09:45.053Z,30.77
2024-01-10T15:12:14.387Z,31.83
2024-01-10T15:14:42.930Z,33.23
2024-01-10T15:17:12.162Z,33.08
2024-01-10T15:19:41.316Z,34.58
2024-01-10T15:22:09.996Z,33.55
2024-01-10T15:24:39.633Z,33.78
2024-01-10T15:27:10.651Z,37.02
2024-01-10T15:29:39.734Z,38.24
2024-01-10T15:32:08.632Z,34.97
2024-01-10T15:34:36.797Z,36.64
2024-01-10T15:37:05.041Z,36.98
2024-01-10T15:39:32.951Z,36.53
2024-01-10T15:42:00.753Z,34.43
2024-01-10T15:44:28.645Z,34.01
2024-01-10T15:46:59.054Z,32.90
2024-01-10T15:49:27.095Z,33.52
2024-01-10T15:51:55.589Z,34.84
2024-01-10T15:54:24.589Z,36.24
2024-01-10T15:56:52.632Z,36.28
2024-01-10T15:59:20.927Z,39.01
2024-01-10T16:01:49.044Z,37.87
2024-01-10T16:04:16.948Z,38.98
2024-01-10T16:06:45.777Z,37.34
2024-01-10T16:09:13.775Z,37.19
2024-01-10T16:11:43.685Z,36.26
2024-01-10T16:14:12.000Z,36.20
2024-01-10T16:16:40.009Z,35.43
2024-01-10T16:19:07.870Z,34.21
2024-01-10T16:21:35.810Z,35.10
2024-01-10T16:24:04.299Z,34.60
2024-01-10T16:26:32.894Z,34.66
2024-01-10T16:29:01.147Z,33.88
2024-01-10T16:31:28.926Z,35.03
2024-01-10T16:33:56.705Z,35.19
2024-01-10T16:36:24.945Z,34.55
2024-01-10T16:38:52.904Z,34.59
2024-01-10T16:41:21.496Z,34.85
2024-01-10T16:43:49.380Z,34.14
2024-01-10T16:46:17.517Z,34.69
2024-01-10T16:48:45.438Z,35.39
2024-01-10T16:51:13.363Z,36.30
2024-01-10T16:53:41.219Z,35.63
2024-01-10T16:56:09.195Z,35.70
2024-01-10T16:58:37.011Z,35.72
2024-01-10T17:01:05.120Z,35.20
2024-01-10T17:03:33.323Z,36.12
2024-01-10T17:06:02.205Z,36.35
2024-01-10T17:08:30.306Z,36.16
2024-01-10T17:10:58.302Z,36.53
2024-01-10T17:13:26.277Z,37.25
2024-01-10T17:15:54.319Z,37.76
2024-01-10T17:18:22.157Z,37.08
2024-01-10T17:20:50.138Z,37.54
2024-01-10T17:23:18.103Z,37.18
2024-01-10T17:25:45.984Z,34.88
2024-01-10T17:28:14.021Z,36.03
2024-01-10T17:30:42.375Z,34.90
2024-01-10T17:33:12.061Z,37.22
2024-01-10T17:35:40.179Z,36.50
2024-01-10T17:38:11.619Z,37.45
2024-01-10T17:40:40.161Z,38.60
2024-01-10T17:43:08.032Z,38.32
2024-01-10T17:45:36.872Z,38.63
2024-01-10T17:48:05.462Z,39.75
2024-01-10T17:50:33.675Z,40.92
2024-01-10T17:53:04.641Z,39.72
2024-01-10T17:55:32.775Z,39.73
2024-01-10T17:58:00.696Z,40.99
2024-01-10T18:00:30.870Z,40.98
2024-01-10T18:02:59.863Z,39.18
2024-01-10T18:05:27.904Z,38.13
2024-01-10T18:07:56.194Z,37.53
2024-01-10T18:10:24.027Z,37.19
2024-01-10T18:12:51.840Z,39.01
2024-01-10T18:15:19.702Z,39.98
2024-01-10T18:17:47.573Z,39.54
2024-01-10T18:20:16.506Z,40.19
2024-01-10T18:22:44.657Z,39.82
2024-01-10T18:25:12.501Z,41.32
2024-01-10T18:27:40.292Z,41.08
2024-01-10T18:30:09.068Z,41.02
2024-01-10T18:32:37.171Z,41.41
2024-01-10T18:35:05.807Z,40.41
2024-01-10T18:37:33.762Z,40.77
2024-01-10T18:40:01.806Z,40.74
2024-01-10T18:42:29.572Z,40.26
2024-01-10T18:44:57.552Z,40.24
2024-01-10T18:47:26.388Z,40.50
2024-01-10T18:49:55.485Z,42.19
2024-01-10T18:52:23.433Z,42.48
2024-01-10T18:54:51.774Z,44.55
2024-01-10T18:57:20.852Z,44.44
2024-01-10T18:59:49.044Z,43.37
2024-01-10T19:02:18.026Z,41.06
2024-01-10T19:04:46.046Z,41.72
2024-01-10T19:07:13.954Z,41.62
2024-01-10T19:09:42.292Z,41.87
2024-01-10T19:12:10.255Z,43.00
2024-01-10T19:14:38.198Z,43.54
2024-01-10T19:17:06.623Z,43.88
2024-01-10T19:19:37.826Z,42.02
2024-01-10T19:22:07.742Z,41.21
2024-01-10T19:24:36.668Z,40.57
2024-01-10T19:27:04.854Z,40.52
2024-01-10T19:29:34.000Z,38.93
2024-01-10T19:32:01.880Z,39.15
2024-01-10T19:34:29.821Z,40.48
2024-01-10T19:36:57.931Z,40.39
2024-01-10T19:39:26.004Z,41.45
2024-01-10T19:41:55.567Z,42.53
2024-01-10T19:44:24.782Z,44.56
2024-01-10T19:46:53.748Z,45.07
2024-01-10T19:49:21.654Z,45.55
2024-01-10T19:51:49.567Z,46.17
2024-01-10T19:54:17.361Z,47.63
2024-01-10T19:56:45.333Z,48.42
2024-01-10T19:59:13.382Z,45.40
2024-01-10T20:01:41.251Z,45.28
2024-01-10T20:04:09.183Z,44.26
2024-01-10T20:06:37.548Z,43.85
2024-01-10T20:09:05.287Z,42.90
2024-01-10T20:11:33.192Z,43.59
2024-01-10T20:14:01.076Z,43.98
2024-01-10T20:16:28.889Z,46.15
2024-01-10T20:18:56.812Z,45.32
2024-01-10T20:21:28.161Z,46.16
2024-01-10T20:23:56.519Z,46.04
2024-01-10T20:26:24.387Z,46.07
2024-01-10T20:28:52.614Z,45.78
2024-01-10T20:31:20.367Z,45.99
2024-01-10T20:33:48.165Z,46.01
2024-01-10T20:36:16.231Z,46.34
2024-01-10T20:38:44.493Z,45.31
2024-01-10T20:41:13.097Z,46.31
2024-01-10T20:43:40.944Z,46.69
2024-01-10T20:46:08.680Z,47.55
2024-01-10T20:48:37.120Z,47.22
2024-01-10T20:51:05.173Z,46.38
2024-01-10T20:53:33.415Z,47.48
2024-01-10T20:56:01.392Z,46.31
2024-01-10T20:58:29.250Z,47.55
2024-01-10T21:00:57.068Z,46.85
2024-01-10T21:03:30.085Z,45.13
2024-01-10T21:05:58.385Z,47.26
2024-01-10T21:08:26.917Z,45.60
2024-01-10T21:10:55.288Z,47.58
2024-01-10T21:13:23.608Z,47.14
2024-01-10T21:15:51.589Z,45.68
2024-01-10T21:18:19.417Z,46.40
2024-01-10T21:20:47.309Z,46.15
2024-01-10T21:23:15.296Z,47.08
2024-01-10T21:25:43.578Z,47.50
2024-01-10T21:28:11.609Z,46.84
2024-01-10T21:30:39.493Z,49.43
2024-01-10T21:33:07.362Z,52.79
2024-01-10T21:35:35.402Z,53.96
2024-01-10T21:38:03.229Z,54.08
2024-01-10T21:40:31.098Z,53.26
2024-01-10T21:42:59.087Z,51.70
2024-01-10T21:45:26.982Z,49.87
2024-01-10T21:47:55.211Z,51.60
2024-01-10T21:50:24.980Z,51.83
2024-01-10T21:52:54.961Z,52.49
2024-01-10T21:55:22.960Z,55.27
2024-01-10T21:57:51.132Z,56.19
2024-01-10T22:00:19.176Z,55.01
2024-01-10T22:02:56.245Z,55.26
2024-01-10T22:05:26.705Z,56.35
2024-01-10T22:07:55.656Z,55.10
2024-01-10T22:10:23.917Z,52.84
2024-01-10T22:12:51.876Z,51.43
2024-01-10T22:15:19.940Z,51.78
2024-01-10T22:17:47.895Z,51.01
2024-01-10T22:20:16.012Z,51.70
2024-01-10T22:22:43.798Z,51.03
2024-01-10T22:25:11.720Z,51.53
2024-01-10T22:27:40.535Z,49.99
2024-01-10T22:30:11.642Z,50.25
2024-01-10T22:32:40.011Z,50.58
2024-01-10T22:35:08.464Z,50.65
2024-01-10T22:37:36.342Z,51.72
2024-01-10T22:40:04.687Z,53.68
2024-01-10T22:42:32.448Z,53.72
2024-01-10T22:45:00.829Z,52.49
2024-01-10T22:47:30.421Z,53.32
2024-01-10T22:49:58.364Z,52.89
2024-01-10T22:52:26.457Z,53.21
2024-01-10T22:54:54.296Z,52.71
2024-01-10T22:57:22.240Z,51.80
2024-01-10T22:59:50.114Z,50.61
2024-01-10T23:02:18.651Z,51.91
2024-01-10T23:04:46.425Z,51.42
2024-01-10T23:07:14.423Z,51.45
2024-01-10T23:09:42.207Z,51.85
2024-01-10T23:12:10.392Z,52.44
2024-01-10T23:14:38.282Z,52.23
2024-01-10T23:17:08.534Z,51.48
2024-01-10T23:19:36.835Z,50.11
2024-01-10T23:22:05.033Z,50.51
2024-01-10T23:24:32.747Z,52.38
2024-01-10T23:27:03.105Z,50.18
2024-01-10T23:29:31.014Z,50.13
2024-01-10T23:31:58.927Z,50.44
2024-01-10T23:34:26.775Z,52.69
2024-01-10T23:36:54.952Z,51.67
2024-01-10T23:39:22.753Z,51.56
2024-01-10T23:41:50.503Z,50.74
2024-01-10T23:44:18.446Z,50.83
2024-01-10T23:46:46.498Z,51.66
2024-01-10T23:49:14.945Z,49.34
2024-01-10T23:51:42.815Z,51.78
2024-01-10T23:54:10.671Z,50.71
2024-01-10T23:56:38.524Z,52.17
2024-01-10T23:59:07.378Z,51.66
